createdAt,value
2018-06-11T00:02:21.758Z,16.90
2018-06-11T00:07:18.981Z,16.80
2018-06-11T00:09:47.755Z,16.80
2018-06-11T00:12:16.549Z,16.70
2018-06-11T00:14:45.300Z,16.70
2018-06-11T00:17:14.069Z,16.60
2018-06-11T00:22:11.330Z,16.60
2018-06-11T00:24:40.104Z,16.60
2018-06-11T00:30:05.845Z,16.60
2018-06-11T00:32:34.606Z,16.50
2018-06-11T00:35:03.352Z,16.60
2018-06-11T00:37:32.117Z,16.60
2018-06-11T00:40:00.884Z,16.60
2018-06-11T00:42:29.772Z,16.60
2018-06-11T00:44:58.540Z,16.50
2018-06-11T00:47:27.282Z,16.50
2018-06-11T00:52:24.573Z,16.50
2018-06-11T00:54:53.334Z,16.50
2018-06-11T00:57:22.085Z,16.50
2018-06-11T00:59:50.834Z,16.50
2018-06-11T01:02:19.592Z,16.50
2018-06-11T01:04:48.337Z,16.50
2018-06-11T01:07:17.081Z,16.60
2018-06-11T01:12:14.272Z,16.60
2018-06-11T01:14:43.129Z,16.60
2018-06-11T01:17:11.868Z,16.60
2018-06-11T01:19:40.633Z,16.50
2018-06-11T01:22:09.499Z,16.60
2018-06-11T01:24:38.281Z,16.60
2018-06-11T01:27:07.028Z,16.60
2018-06-11T01:29:35.782Z,16.50
2018-06-11T01:32:04.595Z,16.50
2018-06-11T01:34:33.352Z,16.50
2018-06-11T01:37:02.113Z,16.50
2018-06-11T01:39:30.860Z,16.50
2018-06-11T01:41:59.617Z,16.50
2018-06-11T01:44:28.377Z,16.50
2018-06-11T01:46:57.123Z,16.50
2018-06-11T01:49:25.948Z,16.50
2018-06-11T01:51:54.701Z,16.50
2018-06-11T01:54:23.479Z,16.60
2018-06-11T01:56:52.225Z,16.60
2018-06-11T01:59:20.989Z,16.60
2018-06-11T02:01:49.728Z,16.60
2018-06-11T02:04:18.485Z,16.60
2018-06-11T02:06:47.248Z,16.50
2018-06-11T02:09:16.028Z,16.50
2018-06-11T02:11:44.753Z,16.60
2018-06-11T02:14:13.514Z,16.60
2018-06-11T02:16:42.273Z,16.60
2018-06-11T02:19:11.066Z,16.60
2018-06-11T02:21:39.801Z,16.60
2018-06-11T02:24:08.564Z,16.60
2018-06-11T02:26:37.313Z,16.60
2018-06-11T02:29:06.081Z,16.60
2018-06-11T02:34:03.345Z,16.70
2018-06-11T02:39:00.605Z,16.60
2018-06-11T02:41:29.365Z,16.60
2018-06-11T02:43:58.301Z,16.50
2018-06-11T02:48:55.545Z,16.50
2018-06-11T02:51:24.332Z,16.50
2018-06-11T02:53:53.121Z,16.50
2018-06-11T02:56:21.876Z,16.50
2018-06-11T02:58:50.629Z,16.50
2018-06-11T03:01:19.385Z,16.50
2018-06-11T03:03:48.130Z,16.50
2018-06-11T03:06:16.890Z,16.50
2018-06-11T03:11:14.372Z,16.50
2018-06-11T03:13:43.150Z,16.40
2018-06-11T03:16:11.877Z,16.50
2018-06-11T03:18:40.673Z,16.50
2018-06-11T03:21:09.449Z,16.50
2018-06-11T03:23:38.239Z,16.50
2018-06-11T03:26:07.031Z,16.50
2018-06-11T03:28:35.773Z,16.50
2018-06-11T03:33:33.018Z,16.50
2018-06-11T03:36:01.775Z,16.50
2018-06-11T03:38:30.524Z,16.50
2018-06-11T03:43:27.720Z,16.60
2018-06-11T03:45:56.476Z,16.60
2018-06-11T03:48:25.254Z,16.60
2018-06-11T03:50:54.019Z,16.60
2018-06-11T03:53:22.772Z,16.60
2018-06-11T03:55:51.535Z,16.60
2018-06-11T03:58:20.293Z,16.60
2018-06-11T04:00:49.150Z,16.60
2018-06-11T04:03:17.869Z,16.60
2018-06-11T04:05:46.617Z,16.60
2018-06-11T04:08:15.400Z,16.60
2018-06-11T04:10:44.218Z,16.60
2018-06-11T04:15:41.414Z,16.70
2018-06-11T04:18:10.223Z,16.70
2018-06-11T04:20:38.965Z,16.80
2018-06-11T04:23:07.785Z,16.80
2018-06-11T04:28:05.093Z,16.80
2018-06-11T04:30:33.895Z,16.80
2018-06-11T04:35:31.153Z,16.80
2018-06-11T04:37:59.885Z,16.80
2018-06-11T04:40:28.674Z,16.80
2018-06-11T04:42:57.421Z,16.80
2018-06-11T04:45:26.179Z,16.80
2018-06-11T04:47:55.242Z,16.80
2018-06-11T04:50:24.017Z,16.80
2018-06-11T04:52:52.783Z,16.80
2018-06-11T04:55:21.598Z,16.80
2018-06-11T04:57:50.410Z,16.70
2018-06-11T05:00:19.168Z,16.60
2018-06-11T05:02:47.928Z,16.60
2018-06-11T05:05:16.685Z,16.50
2018-06-11T05:10:14.062Z,16.50
2018-06-11T05:17:39.741Z,16.70
2018-06-11T05:20:08.527Z,16.90
2018-06-11T05:22:37.270Z,16.90
2018-06-11T05:25:06.046Z,16.90
2018-06-11T05:27:34.861Z,17.10
2018-06-11T05:30:03.763Z,17.00
2018-06-11T05:32:32.661Z,17.30
2018-06-11T05:35:01.417Z,17.50
2018-06-11T05:37:30.185Z,17.50
2018-06-11T05:39:58.940Z,17.40
2018-06-11T05:42:27.701Z,17.30
2018-06-11T05:44:56.457Z,17.30
2018-06-11T05:47:25.230Z,17.20
2018-06-11T05:49:53.988Z,17.10
2018-06-11T05:52:22.745Z,17.30
2018-06-11T05:59:48.497Z,17.50
2018-06-11T06:04:45.736Z,17.70
2018-06-11T06:07:14.501Z,17.80
2018-06-11T06:09:43.250Z,17.80
2018-06-11T06:12:12.022Z,18.00
2018-06-11T06:14:40.808Z,18.10
2018-06-11T06:19:38.013Z,18.10
2018-06-11T06:22:06.757Z,18.20
2018-06-11T06:24:35.553Z,18.00
2018-06-11T06:27:04.514Z,18.00
2018-06-11T06:29:33.377Z,18.00
2018-06-11T06:32:02.133Z,18.20
2018-06-11T06:39:27.942Z,18.40
2018-06-11T06:41:56.653Z,18.30
2018-06-11T06:44:25.445Z,18.20
2018-06-11T06:46:54.237Z,18.20
2018-06-11T06:49:23.025Z,18.20
2018-06-11T06:51:51.781Z,18.30
2018-06-11T06:54:20.576Z,18.10
2018-06-11T06:56:49.340Z,18.20
2018-06-11T06:59:18.093Z,18.30
2018-06-11T07:01:46.872Z,18.40
2018-06-11T07:06:44.119Z,18.30
2018-06-11T07:09:12.884Z,18.30
2018-06-11T07:11:41.658Z,18.20
2018-06-11T07:14:10.590Z,18.20
2018-06-11T07:16:39.349Z,18.20
2018-06-11T07:19:08.185Z,18.30
2018-06-11T07:24:05.438Z,18.60
2018-06-11T07:26:34.257Z,18.60
2018-06-11T07:29:03.009Z,18.50
2018-06-11T07:31:31.765Z,18.80
2018-06-11T07:34:00.736Z,18.80
2018-06-11T07:36:29.498Z,19.00
2018-06-11T07:41:26.740Z,19.00
2018-06-11T07:43:55.497Z,18.80
2018-06-11T07:46:24.250Z,18.80
2018-06-11T07:48:52.985Z,18.80
2018-06-11T07:51:21.768Z,18.50
2018-06-11T07:53:50.533Z,18.60
2018-06-11T07:56:19.300Z,18.60
2018-06-11T07:58:48.048Z,18.70
2018-06-11T08:01:16.847Z,18.70
2018-06-11T08:03:45.624Z,18.90
2018-06-11T08:06:14.393Z,18.80
2018-06-11T08:08:43.173Z,18.80
2018-06-11T08:11:11.944Z,18.70
2018-06-11T08:13:40.815Z,19.00
2018-06-11T08:16:09.513Z,19.20
2018-06-11T08:18:38.268Z,19.20
2018-06-11T08:21:07.029Z,19.40
2018-06-11T08:23:35.776Z,19.10
2018-06-11T08:26:04.589Z,19.10
2018-06-11T08:28:33.341Z,19.30
2018-06-11T08:31:02.093Z,19.30
2018-06-11T08:33:30.914Z,19.40
2018-06-11T08:38:28.193Z,19.40
2018-06-11T08:43:25.446Z,19.40
2018-06-11T08:45:54.201Z,19.40
2018-06-11T08:48:22.967Z,19.20
2018-06-11T08:50:51.709Z,19.10
2018-06-11T08:53:20.490Z,19.20
2018-06-11T08:55:49.242Z,19.50
2018-06-11T08:58:17.997Z,19.60
2018-06-11T09:00:46.754Z,19.70
2018-06-11T09:03:15.552Z,19.50
2018-06-11T09:05:44.392Z,19.40
2018-06-11T09:08:13.201Z,19.30
2018-06-11T09:10:42.116Z,19.20
2018-06-11T09:13:10.919Z,18.90
2018-06-11T09:23:05.253Z,19.70
2018-06-11T09:28:02.521Z,19.70
2018-06-11T09:32:59.755Z,19.90
2018-06-11T09:35:28.516Z,20.00
2018-06-11T09:37:57.260Z,20.10
2018-06-11T09:42:54.533Z,20.40
2018-06-11T09:50:20.283Z,20.70
2018-06-11T09:55:17.489Z,20.60
2018-06-11T09:57:46.241Z,20.30
2018-06-11T10:02:49.301Z,20.30
2018-06-11T10:05:18.046Z,20.20
2018-06-11T10:07:46.796Z,20.10
2018-06-11T10:10:15.565Z,20.70
2018-06-11T10:12:44.500Z,20.90
2018-06-11T10:17:41.945Z,20.90
2018-06-11T10:20:10.696Z,20.80
2018-06-11T10:22:39.457Z,20.60
2018-06-11T10:25:08.198Z,20.30
2018-06-11T10:27:36.965Z,20.60
2018-06-11T10:30:05.724Z,21.10
2018-06-11T10:40:00.083Z,21.10
2018-06-11T10:42:28.825Z,20.70
2018-06-11T10:44:57.584Z,20.30
2018-06-11T10:47:26.413Z,20.30
2018-06-11T10:52:23.673Z,21.10
2018-06-11T10:54:52.434Z,21.50
2018-06-11T10:57:21.400Z,21.70
2018-06-11T10:59:50.152Z,22.00
2018-06-11T11:04:47.534Z,21.60
2018-06-11T11:07:16.315Z,21.60
2018-06-11T11:12:13.558Z,21.30
2018-06-11T11:14:42.314Z,21.20
2018-06-11T11:17:11.129Z,21.60
2018-06-11T11:19:39.981Z,21.70
2018-06-11T11:22:08.730Z,21.90
2018-06-11T11:32:03.771Z,21.50
2018-06-11T11:34:32.533Z,21.40
2018-06-11T11:37:01.297Z,22.00
2018-06-11T11:39:30.062Z,22.60
2018-06-11T11:41:58.809Z,22.60
2018-06-11T11:44:27.567Z,22.50
2018-06-11T11:46:56.318Z,23.20
2018-06-11T11:51:53.565Z,22.60
2018-06-11T11:54:22.378Z,22.40
2018-06-11T11:56:51.156Z,22.50
2018-06-11T12:01:48.399Z,22.00
2018-06-11T12:04:17.173Z,21.70
2018-06-11T12:06:46.073Z,21.90
2018-06-11T12:09:14.833Z,22.60
2018-06-11T12:11:43.573Z,23.10
2018-06-11T12:16:40.985Z,23.60
2018-06-11T12:19:09.762Z,23.30
2018-06-11T12:24:07.154Z,23.10
2018-06-11T12:26:35.893Z,23.20
2018-06-11T12:31:33.152Z,23.10
2018-06-11T12:34:01.921Z,23.20
2018-06-11T12:36:30.725Z,23.10
2018-06-11T12:38:59.493Z,23.40
2018-06-11T12:41:28.253Z,22.90
2018-06-11T12:43:57.075Z,23.20
2018-06-11T12:46:25.812Z,23.50
2018-06-11T12:48:54.581Z,23.90
2018-06-11T12:53:51.845Z,24.00
2018-06-11T12:58:49.100Z,23.70
2018-06-11T13:01:17.869Z,23.80
2018-06-11T13:03:46.637Z,24.30
2018-06-11T13:06:15.401Z,24.80
2018-06-11T13:08:44.153Z,24.80
2018-06-11T13:11:12.948Z,24.30
2018-06-11T13:13:41.685Z,24.40
2018-06-11T13:16:10.683Z,24.40
2018-06-11T13:18:39.404Z,24.40
2018-06-11T13:21:08.178Z,24.00
2018-06-11T13:23:36.946Z,23.20
2018-06-11T13:26:05.701Z,23.40
2018-06-11T13:28:34.450Z,23.80
2018-06-11T13:31:03.212Z,24.40
2018-06-11T13:33:32.008Z,25.20
2018-06-11T13:36:00.785Z,25.20
2018-06-11T13:38:29.529Z,24.60
2018-06-11T13:43:26.741Z,23.40
2018-06-11T13:45:55.509Z,23.60
2018-06-11T13:48:24.261Z,22.90
2018-06-11T13:50:53.029Z,22.70
2018-06-11T13:53:21.784Z,23.30
2018-06-11T13:55:50.553Z,24.20
2018-06-11T13:58:19.285Z,24.50
2018-06-11T14:00:48.048Z,24.50
2018-06-11T14:03:16.789Z,24.20
2018-06-11T14:05:45.581Z,23.20
2018-06-11T14:08:14.285Z,23.40
2018-06-11T14:10:43.042Z,23.30
2018-06-11T14:13:11.785Z,23.40
2018-06-11T14:15:40.537Z,23.10
2018-06-11T14:20:37.788Z,23.10
2018-06-11T14:23:06.545Z,22.80
2018-06-11T14:25:35.317Z,22.80
2018-06-11T14:28:04.101Z,23.10
2018-06-11T14:30:32.868Z,22.80
2018-06-11T14:33:01.685Z,23.30
2018-06-11T14:35:30.425Z,24.00
2018-06-11T14:37:59.202Z,24.40
2018-06-11T14:40:27.973Z,24.00
2018-06-11T14:42:56.901Z,23.90
2018-06-11T14:47:54.260Z,24.80
2018-06-11T14:50:23.043Z,25.00
2018-06-11T14:52:51.799Z,25.10
2018-06-11T14:55:20.729Z,24.60
2018-06-11T14:57:49.547Z,24.30
2018-06-11T15:02:46.825Z,23.60
2018-06-11T15:05:15.602Z,23.90
2018-06-11T15:07:44.357Z,23.70
2018-06-11T15:10:13.258Z,24.50
2018-06-11T15:12:42.263Z,25.20
2018-06-11T15:15:11.017Z,25.50
2018-06-11T15:17:39.821Z,24.80
2018-06-11T15:20:08.571Z,24.10
2018-06-11T15:22:37.405Z,23.60
2018-06-11T15:25:06.298Z,23.80
2018-06-11T15:27:35.091Z,24.60
2018-06-11T15:32:32.319Z,24.00
2018-06-11T15:35:01.065Z,23.90
2018-06-11T15:37:29.818Z,23.40
2018-06-11T15:39:58.646Z,23.10
2018-06-11T15:42:27.408Z,23.70
2018-06-11T15:44:56.170Z,24.70
2018-06-11T15:47:24.965Z,24.80
2018-06-11T15:49:53.721Z,24.80
2018-06-11T15:52:22.490Z,24.70
2018-06-11T15:54:51.247Z,24.40
2018-06-11T15:57:20.006Z,23.30
2018-06-11T15:59:48.785Z,23.30
2018-06-11T16:02:17.560Z,23.40
2018-06-11T16:04:46.285Z,23.50
2018-06-11T16:07:15.045Z,23.50
2018-06-11T16:09:43.794Z,23.90
2018-06-11T16:12:12.590Z,24.30
2018-06-11T16:14:41.336Z,24.00
2018-06-11T16:17:10.273Z,23.90
2018-06-11T16:19:39.005Z,24.50
2018-06-11T16:22:07.761Z,25.00
2018-06-11T16:24:36.505Z,25.00
2018-06-11T16:29:33.927Z,24.50
2018-06-11T16:32:02.664Z,24.30
2018-06-11T16:34:31.418Z,23.60
2018-06-11T16:37:00.250Z,23.20
2018-06-11T16:39:28.946Z,23.10
2018-06-11T16:44:26.244Z,22.80
2018-06-11T16:46:55.001Z,22.40
2018-06-11T16:51:52.205Z,22.40
2018-06-11T16:54:20.957Z,22.70
2018-06-11T16:59:18.393Z,23.50
2018-06-11T17:01:47.165Z,23.50
2018-06-11T17:04:15.904Z,22.90
2018-06-11T17:06:44.661Z,22.60
2018-06-11T17:09:13.408Z,22.30
2018-06-11T17:11:42.437Z,22.40
2018-06-11T17:14:11.249Z,22.60
2018-06-11T17:16:39.985Z,22.70
2018-06-11T17:19:08.749Z,23.00
2018-06-11T17:21:37.500Z,22.90
2018-06-11T17:24:06.457Z,22.90
2018-06-11T17:26:35.252Z,23.10
2018-06-11T17:29:04.190Z,22.80
2018-06-11T17:31:32.948Z,22.30
2018-06-11T17:34:03.805Z,22.50
2018-06-11T17:41:29.649Z,21.80
2018-06-11T17:43:58.400Z,21.80
2018-06-11T17:46:27.181Z,21.70
2018-06-11T17:48:55.937Z,21.40
2018-06-11T17:51:24.670Z,21.40
2018-06-11T17:53:53.413Z,21.10
2018-06-11T17:56:22.161Z,20.90
2018-06-11T17:58:50.937Z,20.90
2018-06-11T18:01:19.676Z,20.70
2018-06-11T18:03:48.506Z,20.60
2018-06-11T18:06:17.308Z,20.50
2018-06-11T18:08:46.022Z,20.50
2018-06-11T18:11:14.764Z,20.50
2018-06-11T18:13:44.397Z,20.30
2018-06-11T18:16:13.193Z,19.80
2018-06-11T18:18:41.977Z,20.20
2018-06-11T18:21:10.708Z,20.30
2018-06-11T18:23:39.466Z,20.20
2018-06-11T18:26:08.281Z,19.90
2018-06-11T18:28:37.084Z,19.80
2018-06-11T18:31:05.845Z,19.50
2018-06-11T18:33:34.648Z,19.50
2018-06-11T18:36:03.529Z,19.40
2018-06-11T18:38:32.289Z,19.30
2018-06-11T18:41:01.041Z,19.30
2018-06-11T18:43:29.782Z,19.20
2018-06-11T18:45:58.589Z,19.30
2018-06-11T18:48:27.345Z,19.10
2018-06-11T18:50:56.148Z,19.10
2018-06-11T18:53:24.897Z,19.20
2018-06-11T18:55:53.631Z,19.30
2018-06-11T18:58:22.390Z,19.00
2018-06-11T19:00:52.733Z,18.70
2018-06-11T19:03:21.529Z,18.40
2018-06-11T19:05:50.792Z,18.20
2018-06-11T19:08:19.682Z,18.20
2018-06-11T19:10:48.461Z,18.20
2018-06-11T19:13:21.145Z,18.20
2018-06-11T19:15:49.882Z,18.00
2018-06-11T19:18:18.639Z,17.90
2018-06-11T19:20:47.421Z,18.10
2018-06-11T19:23:16.184Z,17.80
2018-06-11T19:25:44.921Z,17.90
2018-06-11T19:28:13.712Z,17.90
2018-06-11T19:30:42.455Z,17.80
2018-06-11T19:33:11.279Z,17.80
2018-06-11T19:35:39.974Z,17.50
2018-06-11T19:38:08.733Z,17.20
2018-06-11T19:40:37.524Z,17.20
2018-06-11T19:43:06.256Z,17.30
2018-06-11T19:45:35.017Z,17.30
2018-06-11T19:48:03.843Z,17.20
2018-06-11T19:50:32.673Z,17.00
2018-06-11T19:53:01.482Z,17.00
2018-06-11T19:55:30.536Z,17.20
2018-06-11T19:57:59.321Z,17.20
2018-06-11T20:00:28.065Z,16.90
2018-06-11T20:02:57.068Z,17.00
2018-06-11T20:05:26.313Z,17.00
2018-06-11T20:07:55.141Z,16.90
2018-06-11T20:10:23.989Z,17.00
2018-06-11T20:12:52.775Z,17.00
2018-06-11T20:15:21.542Z,16.90
2018-06-11T20:17:50.300Z,16.60
2018-06-11T20:20:19.085Z,16.70
2018-06-11T20:22:47.849Z,16.60
2018-06-11T20:25:16.588Z,16.40
2018-06-11T20:27:45.345Z,16.30
2018-06-11T20:30:14.110Z,16.30
2018-06-11T20:32:42.933Z,16.40
2018-06-11T20:35:11.684Z,16.30
2018-06-11T20:37:40.509Z,16.50
2018-06-11T20:40:09.206Z,16.50
2018-06-11T20:42:37.968Z,16.50
2018-06-11T20:45:06.743Z,16.40
2018-06-11T20:47:35.515Z,16.20
2018-06-11T20:50:04.274Z,16.30
2018-06-11T20:52:33.103Z,16.40
2018-06-11T20:55:01.930Z,16.30
2018-06-11T20:57:30.696Z,16.20
2018-06-11T20:59:59.477Z,16.40
2018-06-11T21:02:28.213Z,16.20
2018-06-11T21:04:56.985Z,16.20
2018-06-11T21:07:25.721Z,16.20
2018-06-11T21:09:54.490Z,16.00
2018-06-11T21:12:23.280Z,16.10
2018-06-11T21:14:52.051Z,16.10
2018-06-11T21:17:20.809Z,15.90
2018-06-11T21:19:49.597Z,16.10
2018-06-11T21:22:18.455Z,16.10
2018-06-11T21:24:47.311Z,15.90
2018-06-11T21:27:16.295Z,15.90
2018-06-11T21:29:45.039Z,16.00
2018-06-11T21:32:13.844Z,16.10
2018-06-11T21:34:42.638Z,16.20
2018-06-11T21:37:11.498Z,16.20
2018-06-11T21:39:40.279Z,16.10
2018-06-11T21:42:09.099Z,16.20
2018-06-11T21:44:37.873Z,16.00
2018-06-11T21:47:06.649Z,16.10
2018-06-11T21:49:35.413Z,16.00
2018-06-11T21:52:04.193Z,16.10
2018-06-11T21:54:33.017Z,16.00
2018-06-11T21:57:01.788Z,16.00
2018-06-11T21:59:30.546Z,16.00
2018-06-11T22:04:27.796Z,16.00
2018-06-11T22:06:56.587Z,16.10
2018-06-11T22:09:25.381Z,15.90
2018-06-11T22:11:54.273Z,15.90
2018-06-11T22:14:23.025Z,15.80
2018-06-11T22:16:51.817Z,15.90
2018-06-11T22:19:20.566Z,16.00
2018-06-11T22:21:49.324Z,15.80
2018-06-11T22:24:18.087Z,15.70
2018-06-11T22:26:46.848Z,15.70
2018-06-11T22:29:15.601Z,15.70
2018-06-11T22:34:12.861Z,15.80
2018-06-11T22:36:41.621Z,15.60
2018-06-11T22:39:10.381Z,15.60
2018-06-11T22:41:39.140Z,15.70
2018-06-11T22:44:07.898Z,15.70
2018-06-11T22:46:36.672Z,15.60
2018-06-11T22:49:05.460Z,15.50
2018-06-11T22:51:34.229Z,15.70
2018-06-11T22:54:03.141Z,15.70
2018-06-11T22:56:31.941Z,15.70
2018-06-11T22:59:00.694Z,15.60
2018-06-11T23:01:29.453Z,15.70
2018-06-11T23:03:58.205Z,15.70
2018-06-11T23:06:26.955Z,15.60
2018-06-11T23:08:55.741Z,15.60
2018-06-11T23:11:24.504Z,15.70
2018-06-11T23:13:53.273Z,15.80
2018-06-11T23:18:50.547Z,15.70
2018-06-11T23:23:47.821Z,15.60
2018-06-11T23:28:45.060Z,15.50
2018-06-11T23:31:13.853Z,15.40
2018-06-11T23:33:42.602Z,15.40
2018-06-11T23:36:11.369Z,15.50
2018-06-11T23:38:40.118Z,15.50
2018-06-11T23:41:08.913Z,15.40
2018-06-11T23:43:37.666Z,15.40
2018-06-11T23:46:06.461Z,15.30
2018-06-11T23:48:35.231Z,15.40
2018-06-11T23:51:03.982Z,15.50
2018-06-11T23:53:32.801Z,15.40
2018-06-11T23:56:01.556Z,15.30
